sensor_id;sensor_type;location;lat;lon;timestamp;temperature;humidity
59975;DHT22;62136;-35.664;-63.766;2022-07-17T00:00:10;15.00;44.00
59975;DHT22;62136;-35.664;-63.766;2022-07-17T00:02:38;15.00;44.00
59975;DHT22;62136;-35.664;-63.766;2022-07-17T00:05:06;15.00;43.90
59975;DHT22;62136;-35.664;-63.766;2022-07-17T00:07:33;15.00;43.90
59975;DHT22;62136;-35.664;-63.766;2022-07-17T00:10:01;15.00;43.90
59975;DHT22;62136;-35.664;-63.766;2022-07-17T00:12:28;15.00;44.00
59975;DHT22;62136;-35.664;-63.766;2022-07-17T00:14:55;15.00;43.90
59975;DHT22;62136;-35.664;-63.766;2022-07-17T00:17:22;15.00;44.00
59975;DHT22;62136;-35.664;-63.766;2022-07-17T00:19:49;14.90;44.00
59975;DHT22;62136;-35.664;-63.766;2022-07-17T00:22:16;15.00;44.00
59975;DHT22;62136;-35.664;-63.766;2022-07-17T00:24:43;14.90;43.90
59975;DHT22;62136;-35.664;-63.766;2022-07-17T00:27:10;14.90;43.90
59975;DHT22;62136;-35.664;-63.766;2022-07-17T00:29:37;14.90;43.90
59975;DHT22;62136;-35.664;-63.766;2022-07-17T00:32:04;14.90;44.00
59975;DHT22;62136;-35.664;-63.766;2022-07-17T00:34:31;14.80;43.90
59975;DHT22;62136;-35.664;-63.766;2022-07-17T00:36:58;14.90;43.90
59975;DHT22;62136;-35.664;-63.766;2022-07-17T00:39:25;14.90;43.90
59975;DHT22;62136;-35.664;-63.766;2022-07-17T00:41:52;14.90;43.90
59975;DHT22;62136;-35.664;-63.766;2022-07-17T00:44:19;14.80;44.00
59975;DHT22;62136;-35.664;-63.766;2022-07-17T00:46:46;14.80;43.90
59975;DHT22;62136;-35.664;-63.766;2022-07-17T00:49:13;14.80;43.80
59975;DHT22;62136;-35.664;-63.766;2022-07-17T00:51:40;14.80;43.80
59975;DHT22;62136;-35.664;-63.766;2022-07-17T00:54:08;14.80;44.30
59975;DHT22;62136;-35.664;-63.766;2022-07-17T00:56:37;14.80;43.80
59975;DHT22;62136;-35.664;-63.766;2022-07-17T00:59:07;14.80;43.90
59975;DHT22;62136;-35.664;-63.766;2022-07-17T01:01:34;14.80;43.80
59975;DHT22;62136;-35.664;-63.766;2022-07-17T01:04:01;14.80;43.70
59975;DHT22;62136;-35.664;-63.766;2022-07-17T01:06:28;14.80;43.80
59975;DHT22;62136;-35.664;-63.766;2022-07-17T01:08:55;14.80;43.80
59975;DHT22;62136;-35.664;-63.766;2022-07-17T01:11:22;14.80;43.80
59975;DHT22;62136;-35.664;-63.766;2022-07-17T01:13:49;14.70;43.80
59975;DHT22;62136;-35.664;-63.766;2022-07-17T01:16:17;14.70;43.80
59975;DHT22;62136;-35.664;-63.766;2022-07-17T01:18:44;14.70;43.80
59975;DHT22;62136;-35.664;-63.766;2022-07-17T01:21:11;14.70;43.80
59975;DHT22;62136;-35.664;-63.766;2022-07-17T01:23:39;14.70;43.90
59975;DHT22;62136;-35.664;-63.766;2022-07-17T01:26:06;14.70;44.00
59975;DHT22;62136;-35.664;-63.766;2022-07-17T01:28:33;14.70;43.80
59975;DHT22;62136;-35.664;-63.766;2022-07-17T01:31:01;14.70;43.80
59975;DHT22;62136;-35.664;-63.766;2022-07-17T01:33:29;14.60;43.80
59975;DHT22;62136;-35.664;-63.766;2022-07-17T01:35:57;14.70;43.80
59975;DHT22;62136;-35.664;-63.766;2022-07-17T01:38:24;14.60;43.80
59975;DHT22;62136;-35.664;-63.766;2022-07-17T01:40:51;14.60;43.80
59975;DHT22;62136;-35.664;-63.766;2022-07-17T01:43:18;14.60;43.90
59975;DHT22;62136;-35.664;-63.766;2022-07-17T01:45:45;14.60;43.80
59975;DHT22;62136;-35.664;-63.766;2022-07-17T01:48:22;14.60;43.70
59975;DHT22;62136;-35.664;-63.766;2022-07-17T01:50:49;14.60;43.90
59975;DHT22;62136;-35.664;-63.766;2022-07-17T01:53:16;14.60;43.90
59975;DHT22;62136;-35.664;-63.766;2022-07-17T01:55:43;14.50;43.70
59975;DHT22;62136;-35.664;-63.766;2022-07-17T01:58:10;14.60;44.00
59975;DHT22;62136;-35.664;-63.766;2022-07-17T02:00:37;14.50;43.80
59975;DHT22;62136;-35.664;-63.766;2022-07-17T02:03:04;14.50;43.90
59975;DHT22;62136;-35.664;-63.766;2022-07-17T02:05:31;14.50;43.80
59975;DHT22;62136;-35.664;-63.766;2022-07-17T02:07:58;14.50;43.90
59975;DHT22;62136;-35.664;-63.766;2022-07-17T02:10:25;14.50;43.80
59975;DHT22;62136;-35.664;-63.766;2022-07-17T02:12:52;14.50;43.80
59975;DHT22;62136;-35.664;-63.766;2022-07-17T02:15:19;14.50;43.80
59975;DHT22;62136;-35.664;-63.766;2022-07-17T02:17:46;14.40;43.90
59975;DHT22;62136;-35.664;-63.766;2022-07-17T02:20:13;14.40;43.70
59975;DHT22;62136;-35.664;-63.766;2022-07-17T02:22:41;14.40;43.80
59975;DHT22;62136;-35.664;-63.766;2022-07-17T02:25:09;14.40;43.80
59975;DHT22;62136;-35.664;-63.766;2022-07-17T02:27:37;14.40;44.10
59975;DHT22;62136;-35.664;-63.766;2022-07-17T02:30:11;14.40;43.90
59975;DHT22;62136;-35.664;-63.766;2022-07-17T02:32:38;14.40;43.90
59975;DHT22;62136;-35.664;-63.766;2022-07-17T02:35:07;14.40;43.90
59975;DHT22;62136;-35.664;-63.766;2022-07-17T02:37:34;14.30;43.90
59975;DHT22;62136;-35.664;-63.766;2022-07-17T02:40:02;14.30;44.00
59975;DHT22;62136;-35.664;-63.766;2022-07-17T02:42:30;14.30;44.00
59975;DHT22;62136;-35.664;-63.766;2022-07-17T02:44:58;14.30;44.00
59975;DHT22;62136;-35.664;-63.766;2022-07-17T02:49:53;14.30;44.60
59975;DHT22;62136;-35.664;-63.766;2022-07-17T02:52:20;14.20;44.10
59975;DHT22;62136;-35.664;-63.766;2022-07-17T02:54:50;14.30;44.10
59975;DHT22;62136;-35.664;-63.766;2022-07-17T02:57:18;14.30;44.10
59975;DHT22;62136;-35.664;-63.766;2022-07-17T02:59:45;14.20;44.10
59975;DHT22;62136;-35.664;-63.766;2022-07-17T03:02:13;14.20;44.10
59975;DHT22;62136;-35.664;-63.766;2022-07-17T03:04:40;14.20;44.20
59975;DHT22;62136;-35.664;-63.766;2022-07-17T03:07:07;14.20;44.10
59975;DHT22;62136;-35.664;-63.766;2022-07-17T03:09:34;14.20;44.20
59975;DHT22;62136;-35.664;-63.766;2022-07-17T03:12:01;14.10;44.20
59975;DHT22;62136;-35.664;-63.766;2022-07-17T03:14:28;14.20;44.30
59975;DHT22;62136;-35.664;-63.766;2022-07-17T03:16:56;14.10;44.20
59975;DHT22;62136;-35.664;-63.766;2022-07-17T03:19:23;14.20;44.30
59975;DHT22;62136;-35.664;-63.766;2022-07-17T03:21:50;14.10;44.30
59975;DHT22;62136;-35.664;-63.766;2022-07-17T03:24:17;14.10;44.30
59975;DHT22;62136;-35.664;-63.766;2022-07-17T03:26:44;14.10;44.30
59975;DHT22;62136;-35.664;-63.766;2022-07-17T03:29:11;14.10;44.30
59975;DHT22;62136;-35.664;-63.766;2022-07-17T03:31:38;14.10;44.40
59975;DHT22;62136;-35.664;-63.766;2022-07-17T03:34:05;14.00;44.20
59975;DHT22;62136;-35.664;-63.766;2022-07-17T03:36:32;14.10;44.30
59975;DHT22;62136;-35.664;-63.766;2022-07-17T03:38:59;14.00;44.30
59975;DHT22;62136;-35.664;-63.766;2022-07-17T03:41:26;14.00;44.30
59975;DHT22;62136;-35.664;-63.766;2022-07-17T03:43:53;14.00;44.30
59975;DHT22;62136;-35.664;-63.766;2022-07-17T03:46:21;14.00;44.30
59975;DHT22;62136;-35.664;-63.766;2022-07-17T03:48:48;14.00;44.40
59975;DHT22;62136;-35.664;-63.766;2022-07-17T03:51:15;13.90;44.30
59975;DHT22;62136;-35.664;-63.766;2022-07-17T03:53:42;13.90;44.80
59975;DHT22;62136;-35.664;-63.766;2022-07-17T03:56:09;13.90;44.40
59975;DHT22;62136;-35.664;-63.766;2022-07-17T03:58:36;13.90;44.50
59975;DHT22;62136;-35.664;-63.766;2022-07-17T04:01:03;13.90;44.40
59975;DHT22;62136;-35.664;-63.766;2022-07-17T04:03:33;13.90;44.40
59975;DHT22;62136;-35.664;-63.766;2022-07-17T04:06:03;13.90;44.40
59975;DHT22;62136;-35.664;-63.766;2022-07-17T04:08:31;13.80;44.40
59975;DHT22;62136;-35.664;-63.766;2022-07-17T04:10:58;13.80;44.50
59975;DHT22;62136;-35.664;-63.766;2022-07-17T04:13:25;13.80;44.50
59975;DHT22;62136;-35.664;-63.766;2022-07-17T04:15:52;13.80;44.50
59975;DHT22;62136;-35.664;-63.766;2022-07-17T04:18:27;13.80;44.50
59975;DHT22;62136;-35.664;-63.766;2022-07-17T04:20:57;13.80;44.60
59975;DHT22;62136;-35.664;-63.766;2022-07-17T04:23:25;13.80;44.50
59975;DHT22;62136;-35.664;-63.766;2022-07-17T04:25:54;13.70;44.50
59975;DHT22;62136;-35.664;-63.766;2022-07-17T04:28:21;13.70;44.50
59975;DHT22;62136;-35.664;-63.766;2022-07-17T04:30:48;13.70;44.50
59975;DHT22;62136;-35.664;-63.766;2022-07-17T04:33:16;13.70;44.50
59975;DHT22;62136;-35.664;-63.766;2022-07-17T04:35:43;13.70;44.60
59975;DHT22;62136;-35.664;-63.766;2022-07-17T04:38:11;13.70;44.50
59975;DHT22;62136;-35.664;-63.766;2022-07-17T04:40:39;13.70;44.60
59975;DHT22;62136;-35.664;-63.766;2022-07-17T04:43:06;13.70;44.70
59975;DHT22;62136;-35.664;-63.766;2022-07-17T04:45:33;13.60;44.60
59975;DHT22;62136;-35.664;-63.766;2022-07-17T04:48:01;13.60;44.60
59975;DHT22;62136;-35.664;-63.766;2022-07-17T04:50:28;13.60;44.60
59975;DHT22;62136;-35.664;-63.766;2022-07-17T04:52:55;13.60;44.60
59975;DHT22;62136;-35.664;-63.766;2022-07-17T04:55:23;13.60;44.70
59975;DHT22;62136;-35.664;-63.766;2022-07-17T04:57:50;13.50;44.70
59975;DHT22;62136;-35.664;-63.766;2022-07-17T05:00:17;13.50;44.70
59975;DHT22;62136;-35.664;-63.766;2022-07-17T05:02:44;13.50;44.70
59975;DHT22;62136;-35.664;-63.766;2022-07-17T05:05:11;13.50;44.70
59975;DHT22;62136;-35.664;-63.766;2022-07-17T05:07:38;13.50;44.70
59975;DHT22;62136;-35.664;-63.766;2022-07-17T05:10:08;13.50;44.70
59975;DHT22;62136;-35.664;-63.766;2022-07-17T05:12:36;13.50;44.70
59975;DHT22;62136;-35.664;-63.766;2022-07-17T05:15:04;13.50;44.80
59975;DHT22;62136;-35.664;-63.766;2022-07-17T05:17:31;13.50;44.80
59975;DHT22;62136;-35.664;-63.766;2022-07-17T05:19:58;13.40;45.10
59975;DHT22;62136;-35.664;-63.766;2022-07-17T05:22:25;13.40;44.70
59975;DHT22;62136;-35.664;-63.766;2022-07-17T05:24:52;13.40;44.70
59975;DHT22;62136;-35.664;-63.766;2022-07-17T05:27:19;13.40;44.80
59975;DHT22;62136;-35.664;-63.766;2022-07-17T05:29:48;13.40;44.80
59975;DHT22;62136;-35.664;-63.766;2022-07-17T05:32:15;13.40;44.70
59975;DHT22;62136;-35.664;-63.766;2022-07-17T05:34:42;13.30;44.70
59975;DHT22;62136;-35.664;-63.766;2022-07-17T05:37:09;13.30;44.70
59975;DHT22;62136;-35.664;-63.766;2022-07-17T05:39:36;13.30;44.70
59975;DHT22;62136;-35.664;-63.766;2022-07-17T05:42:05;13.30;44.80
59975;DHT22;62136;-35.664;-63.766;2022-07-17T05:44:32;13.30;44.80
59975;DHT22;62136;-35.664;-63.766;2022-07-17T05:46:59;13.30;44.80
59975;DHT22;62136;-35.664;-63.766;2022-07-17T05:49:26;13.30;44.80
59975;DHT22;62136;-35.664;-63.766;2022-07-17T05:51:53;13.20;44.70
59975;DHT22;62136;-35.664;-63.766;2022-07-17T05:54:20;13.20;44.70
59975;DHT22;62136;-35.664;-63.766;2022-07-17T05:56:47;13.20;44.80
59975;DHT22;62136;-35.664;-63.766;2022-07-17T05:59:14;13.20;44.70
59975;DHT22;62136;-35.664;-63.766;2022-07-17T06:01:41;13.20;44.80
59975;DHT22;62136;-35.664;-63.766;2022-07-17T06:04:08;13.20;44.70
59975;DHT22;62136;-35.664;-63.766;2022-07-17T06:06:35;13.10;44.70
59975;DHT22;62136;-35.664;-63.766;2022-07-17T06:09:03;13.10;44.70
59975;DHT22;62136;-35.664;-63.766;2022-07-17T06:11:32;13.10;44.80
59975;DHT22;62136;-35.664;-63.766;2022-07-17T06:13:59;13.10;44.70
59975;DHT22;62136;-35.664;-63.766;2022-07-17T06:16:26;13.10;44.80
59975;DHT22;62136;-35.664;-63.766;2022-07-17T06:18:54;13.10;44.70
59975;DHT22;62136;-35.664;-63.766;2022-07-17T06:21:21;13.10;44.70
59975;DHT22;62136;-35.664;-63.766;2022-07-17T06:23:48;13.10;44.70
59975;DHT22;62136;-35.664;-63.766;2022-07-17T06:26:15;13.10;44.70
59975;DHT22;62136;-35.664;-63.766;2022-07-17T06:28:45;13.00;44.70
59975;DHT22;62136;-35.664;-63.766;2022-07-17T06:31:12;13.00;44.70
59975;DHT22;62136;-35.664;-63.766;2022-07-17T06:33:39;13.00;44.70
59975;DHT22;62136;-35.664;-63.766;2022-07-17T06:36:06;13.00;44.70
59975;DHT22;62136;-35.664;-63.766;2022-07-17T06:38:33;13.00;44.70
59975;DHT22;62136;-35.664;-63.766;2022-07-17T06:41:01;13.00;44.80
59975;DHT22;62136;-35.664;-63.766;2022-07-17T06:43:29;13.00;44.70
59975;DHT22;62136;-35.664;-63.766;2022-07-17T06:45:56;13.00;44.70
59975;DHT22;62136;-35.664;-63.766;2022-07-17T06:48:23;12.90;44.70
59975;DHT22;62136;-35.664;-63.766;2022-07-17T06:50:50;12.90;44.70
59975;DHT22;62136;-35.664;-63.766;2022-07-17T06:53:17;12.90;44.70
59975;DHT22;62136;-35.664;-63.766;2022-07-17T06:55:44;12.90;44.70
59975;DHT22;62136;-35.664;-63.766;2022-07-17T06:58:11;12.90;44.70
59975;DHT22;62136;-35.664;-63.766;2022-07-17T07:00:39;12.90;44.80
59975;DHT22;62136;-35.664;-63.766;2022-07-17T07:03:09;12.90;44.70
59975;DHT22;62136;-35.664;-63.766;2022-07-17T07:05:36;12.80;44.70
59975;DHT22;62136;-35.664;-63.766;2022-07-17T07:08:03;12.80;44.70
59975;DHT22;62136;-35.664;-63.766;2022-07-17T07:10:30;12.80;44.70
59975;DHT22;62136;-35.664;-63.766;2022-07-17T07:12:57;12.80;44.70
59975;DHT22;62136;-35.664;-63.766;2022-07-17T07:15:24;12.80;44.70
59975;DHT22;62136;-35.664;-63.766;2022-07-17T07:17:51;12.80;44.70
59975;DHT22;62136;-35.664;-63.766;2022-07-17T07:20:19;12.80;44.70
59975;DHT22;62136;-35.664;-63.766;2022-07-17T07:22:46;12.80;44.70
59975;DHT22;62136;-35.664;-63.766;2022-07-17T07:25:14;12.70;44.70
59975;DHT22;62136;-35.664;-63.766;2022-07-17T07:27:41;12.80;44.70
59975;DHT22;62136;-35.664;-63.766;2022-07-17T07:30:09;12.70;44.70
59975;DHT22;62136;-35.664;-63.766;2022-07-17T07:32:37;12.70;44.70
59975;DHT22;62136;-35.664;-63.766;2022-07-17T07:35:06;12.60;44.70
59975;DHT22;62136;-35.664;-63.766;2022-07-17T07:37:34;12.60;44.60
59975;DHT22;62136;-35.664;-63.766;2022-07-17T07:40:01;12.60;44.70
59975;DHT22;62136;-35.664;-63.766;2022-07-17T07:42:29;12.60;44.70
59975;DHT22;62136;-35.664;-63.766;2022-07-17T07:44:56;12.60;44.70
59975;DHT22;62136;-35.664;-63.766;2022-07-17T07:47:23;12.60;44.70
59975;DHT22;62136;-35.664;-63.766;2022-07-17T07:49:50;12.60;44.60
59975;DHT22;62136;-35.664;-63.766;2022-07-17T07:52:17;12.60;44.70
59975;DHT22;62136;-35.664;-63.766;2022-07-17T07:54:44;12.60;44.60
59975;DHT22;62136;-35.664;-63.766;2022-07-17T07:57:11;12.60;44.60
59975;DHT22;62136;-35.664;-63.766;2022-07-17T07:59:38;12.60;44.60
59975;DHT22;62136;-35.664;-63.766;2022-07-17T08:02:05;12.50;44.50
59975;DHT22;62136;-35.664;-63.766;2022-07-17T08:04:32;12.50;44.50
59975;DHT22;62136;-35.664;-63.766;2022-07-17T08:06:59;12.50;44.50
59975;DHT22;62136;-35.664;-63.766;2022-07-17T08:09:26;12.50;44.50
59975;DHT22;62136;-35.664;-63.766;2022-07-17T08:11:53;12.50;44.50
59975;DHT22;62136;-35.664;-63.766;2022-07-17T08:14:20;12.50;44.40
59975;DHT22;62136;-35.664;-63.766;2022-07-17T08:16:47;12.50;44.70
59975;DHT22;62136;-35.664;-63.766;2022-07-17T08:19:14;12.50;44.50
59975;DHT22;62136;-35.664;-63.766;2022-07-17T08:21:42;12.40;44.50
59975;DHT22;62136;-35.664;-63.766;2022-07-17T08:24:09;12.40;44.50
59975;DHT22;62136;-35.664;-63.766;2022-07-17T08:26:36;12.40;44.50
59975;DHT22;62136;-35.664;-63.766;2022-07-17T08:29:03;12.40;44.50
59975;DHT22;62136;-35.664;-63.766;2022-07-17T08:31:30;12.40;44.40
59975;DHT22;62136;-35.664;-63.766;2022-07-17T08:33:57;12.30;44.50
59975;DHT22;62136;-35.664;-63.766;2022-07-17T08:36:24;12.40;44.50
59975;DHT22;62136;-35.664;-63.766;2022-07-17T08:38:51;12.30;44.40
59975;DHT22;62136;-35.664;-63.766;2022-07-17T08:41:19;12.30;44.40
59975;DHT22;62136;-35.664;-63.766;2022-07-17T08:43:49;12.30;44.40
59975;DHT22;62136;-35.664;-63.766;2022-07-17T08:46:17;12.30;44.40
59975;DHT22;62136;-35.664;-63.766;2022-07-17T08:48:46;12.30;44.50
59975;DHT22;62136;-35.664;-63.766;2022-07-17T08:51:16;12.30;44.50
59975;DHT22;62136;-35.664;-63.766;2022-07-17T08:53:44;12.30;44.50
59975;DHT22;62136;-35.664;-63.766;2022-07-17T08:56:11;12.20;44.40
59975;DHT22;62136;-35.664;-63.766;2022-07-17T08:58:38;12.20;44.50
59975;DHT22;62136;-35.664;-63.766;2022-07-17T09:01:06;12.30;44.50
59975;DHT22;62136;-35.664;-63.766;2022-07-17T09:03:33;12.20;44.50
59975;DHT22;62136;-35.664;-63.766;2022-07-17T09:06:00;12.20;44.60
59975;DHT22;62136;-35.664;-63.766;2022-07-17T09:08:27;12.20;44.60
59975;DHT22;62136;-35.664;-63.766;2022-07-17T09:10:59;12.20;44.50
59975;DHT22;62136;-35.664;-63.766;2022-07-17T09:13:30;12.20;44.60
59975;DHT22;62136;-35.664;-63.766;2022-07-17T09:16:17;12.20;44.60
59975;DHT22;62136;-35.664;-63.766;2022-07-17T09:18:51;12.20;44.60
59975;DHT22;62136;-35.664;-63.766;2022-07-17T09:21:27;12.20;44.60
59975;DHT22;62136;-35.664;-63.766;2022-07-17T09:23:59;12.20;44.70
59975;DHT22;62136;-35.664;-63.766;2022-07-17T09:26:26;12.20;44.70
59975;DHT22;62136;-35.664;-63.766;2022-07-17T09:28:54;12.20;44.60
59975;DHT22;62136;-35.664;-63.766;2022-07-17T09:31:31;12.10;44.60
59975;DHT22;62136;-35.664;-63.766;2022-07-17T09:33:59;12.10;44.60
59975;DHT22;62136;-35.664;-63.766;2022-07-17T09:36:27;12.10;44.60
59975;DHT22;62136;-35.664;-63.766;2022-07-17T09:38:56;12.10;44.60
59975;DHT22;62136;-35.664;-63.766;2022-07-17T09:41:25;12.10;44.70
59975;DHT22;62136;-35.664;-63.766;2022-07-17T09:43:58;12.10;44.70
59975;DHT22;62136;-35.664;-63.766;2022-07-17T09:46:31;12.10;44.80
59975;DHT22;62136;-35.664;-63.766;2022-07-17T09:49:03;12.10;44.70
59975;DHT22;62136;-35.664;-63.766;2022-07-17T09:51:33;12.00;44.80
59975;DHT22;62136;-35.664;-63.766;2022-07-17T09:54:02;12.00;44.70
59975;DHT22;62136;-35.664;-63.766;2022-07-17T09:56:34;12.00;44.80
59975;DHT22;62136;-35.664;-63.766;2022-07-17T09:59:06;12.00;44.80
59975;DHT22;62136;-35.664;-63.766;2022-07-17T10:01:34;12.00;44.80
59975;DHT22;62136;-35.664;-63.766;2022-07-17T10:04:02;12.00;44.80
59975;DHT22;62136;-35.664;-63.766;2022-07-17T10:06:30;12.00;44.80
59975;DHT22;62136;-35.664;-63.766;2022-07-17T10:08:57;12.00;44.80
59975;DHT22;62136;-35.664;-63.766;2022-07-17T10:11:39;12.00;44.80
59975;DHT22;62136;-35.664;-63.766;2022-07-17T10:14:11;12.00;44.80
59975;DHT22;62136;-35.664;-63.766;2022-07-17T10:16:39;12.00;44.80
59975;DHT22;62136;-35.664;-63.766;2022-07-17T10:19:21;12.00;44.80
59975;DHT22;62136;-35.664;-63.766;2022-07-17T10:21:55;12.00;44.90
59975;DHT22;62136;-35.664;-63.766;2022-07-17T10:24:23;11.90;44.90
59975;DHT22;62136;-35.664;-63.766;2022-07-17T10:26:50;11.90;44.90
59975;DHT22;62136;-35.664;-63.766;2022-07-17T10:29:36;11.90;44.90
59975;DHT22;62136;-35.664;-63.766;2022-07-17T10:32:08;11.90;44.90
59975;DHT22;62136;-35.664;-63.766;2022-07-17T10:34:46;11.90;44.90
59975;DHT22;62136;-35.664;-63.766;2022-07-17T10:39:56;11.90;44.90
59975;DHT22;62136;-35.664;-63.766;2022-07-17T10:42:44;11.90;45.00
59975;DHT22;62136;-35.664;-63.766;2022-07-17T10:47:58;11.80;44.90
59975;DHT22;62136;-35.664;-63.766;2022-07-17T10:50:32;11.90;45.00
59975;DHT22;62136;-35.664;-63.766;2022-07-17T10:53:05;11.80;45.00
59975;DHT22;62136;-35.664;-63.766;2022-07-17T10:55:37;11.80;45.10
59975;DHT22;62136;-35.664;-63.766;2022-07-17T10:58:20;11.80;45.00
59975;DHT22;62136;-35.664;-63.766;2022-07-17T11:01:05;11.80;45.00
59975;DHT22;62136;-35.664;-63.766;2022-07-17T11:03:56;11.80;45.00
59975;DHT22;62136;-35.664;-63.766;2022-07-17T11:06:36;11.80;45.00
59975;DHT22;62136;-35.664;-63.766;2022-07-17T11:09:11;11.80;45.50
59975;DHT22;62136;-35.664;-63.766;2022-07-17T11:14:11;11.80;45.10
59975;DHT22;62136;-35.664;-63.766;2022-07-17T11:17:00;11.80;45.00
59975;DHT22;62136;-35.664;-63.766;2022-07-17T11:22:02;11.80;45.10
59975;DHT22;62136;-35.664;-63.766;2022-07-17T11:24:43;11.70;45.10
59975;DHT22;62136;-35.664;-63.766;2022-07-17T11:27:12;11.70;45.10
59975;DHT22;62136;-35.664;-63.766;2022-07-17T11:29:40;11.70;45.10
59975;DHT22;62136;-35.664;-63.766;2022-07-17T11:32:07;11.70;45.00
59975;DHT22;62136;-35.664;-63.766;2022-07-17T11:34:34;11.70;45.00
59975;DHT22;62136;-35.664;-63.766;2022-07-17T11:37:04;11.70;45.10
59975;DHT22;62136;-35.664;-63.766;2022-07-17T11:39:43;11.60;45.00
59975;DHT22;62136;-35.664;-63.766;2022-07-17T11:42:14;11.70;45.10
59975;DHT22;62136;-35.664;-63.766;2022-07-17T11:44:42;11.60;45.10
59975;DHT22;62136;-35.664;-63.766;2022-07-17T11:47:18;11.70;45.40
59975;DHT22;62136;-35.664;-63.766;2022-07-17T11:49:46;11.70;45.10
59975;DHT22;62136;-35.664;-63.766;2022-07-17T11:52:17;11.60;45.00
59975;DHT22;62136;-35.664;-63.766;2022-07-17T11:54:50;11.60;45.10
59975;DHT22;62136;-35.664;-63.766;2022-07-17T11:57:18;11.70;45.10
59975;DHT22;62136;-35.664;-63.766;2022-07-17T11:59:46;11.70;45.20
59975;DHT22;62136;-35.664;-63.766;2022-07-17T12:02:15;11.70;45.20
59975;DHT22;62136;-35.664;-63.766;2022-07-17T12:04:55;11.70;45.20
59975;DHT22;62136;-35.664;-63.766;2022-07-17T12:07:24;11.70;45.20
59975;DHT22;62136;-35.664;-63.766;2022-07-17T12:09:52;11.60;45.20
59975;DHT22;62136;-35.664;-63.766;2022-07-17T12:12:24;11.60;45.20
59975;DHT22;62136;-35.664;-63.766;2022-07-17T12:14:57;11.70;45.30
59975;DHT22;62136;-35.664;-63.766;2022-07-17T12:17:26;11.70;45.40
59975;DHT22;62136;-35.664;-63.766;2022-07-17T12:20:05;11.70;45.40
59975;DHT22;62136;-35.664;-63.766;2022-07-17T12:22:46;11.70;45.40
59975;DHT22;62136;-35.664;-63.766;2022-07-17T12:25:27;11.70;45.50
59975;DHT22;62136;-35.664;-63.766;2022-07-17T12:27:54;11.70;45.50
59975;DHT22;62136;-35.664;-63.766;2022-07-17T12:30:21;11.70;45.50
59975;DHT22;62136;-35.664;-63.766;2022-07-17T12:32:49;11.70;45.60
59975;DHT22;62136;-35.664;-63.766;2022-07-17T12:35:16;11.70;45.60
59975;DHT22;62136;-35.664;-63.766;2022-07-17T12:37:43;11.70;45.70
59975;DHT22;62136;-35.664;-63.766;2022-07-17T12:40:10;11.70;45.80
59975;DHT22;62136;-35.664;-63.766;2022-07-17T12:42:38;11.70;45.80
59975;DHT22;62136;-35.664;-63.766;2022-07-17T12:45:05;11.70;45.70
59975;DHT22;62136;-35.664;-63.766;2022-07-17T12:47:32;11.70;45.70
59975;DHT22;62136;-35.664;-63.766;2022-07-17T12:49:59;11.70;45.80
59975;DHT22;62136;-35.664;-63.766;2022-07-17T12:52:26;11.80;45.90
59975;DHT22;62136;-35.664;-63.766;2022-07-17T12:54:53;11.80;46.50
59975;DHT22;62136;-35.664;-63.766;2022-07-17T12:57:20;11.80;46.10
59975;DHT22;62136;-35.664;-63.766;2022-07-17T12:59:47;11.80;46.10
59975;DHT22;62136;-35.664;-63.766;2022-07-17T13:02:14;11.80;46.10
59975;DHT22;62136;-35.664;-63.766;2022-07-17T13:04:42;11.80;46.20
59975;DHT22;62136;-35.664;-63.766;2022-07-17T13:07:09;11.80;46.20
59975;DHT22;62136;-35.664;-63.766;2022-07-17T13:09:36;11.90;46.30
59975;DHT22;62136;-35.664;-63.766;2022-07-17T13:12:03;11.90;46.40
59975;DHT22;62136;-35.664;-63.766;2022-07-17T13:14:31;11.90;46.30
59975;DHT22;62136;-35.664;-63.766;2022-07-17T13:16:58;11.90;46.40
59975;DHT22;62136;-35.664;-63.766;2022-07-17T13:19:29;11.90;46.40
59975;DHT22;62136;-35.664;-63.766;2022-07-17T13:21:56;12.00;46.50
59975;DHT22;62136;-35.664;-63.766;2022-07-17T13:24:23;12.00;46.50
59975;DHT22;62136;-35.664;-63.766;2022-07-17T13:26:52;12.00;46.50
59975;DHT22;62136;-35.664;-63.766;2022-07-17T13:29:19;12.10;46.60
59975;DHT22;62136;-35.664;-63.766;2022-07-17T13:31:46;12.10;46.60
59975;DHT22;62136;-35.664;-63.766;2022-07-17T13:34:13;12.10;46.60
59975;DHT22;62136;-35.664;-63.766;2022-07-17T13:36:40;12.10;46.70
59975;DHT22;62136;-35.664;-63.766;2022-07-17T13:39:07;12.20;46.80
59975;DHT22;62136;-35.664;-63.766;2022-07-17T13:41:37;12.20;46.80
59975;DHT22;62136;-35.664;-63.766;2022-07-17T13:44:05;12.20;46.90
59975;DHT22;62136;-35.664;-63.766;2022-07-17T13:46:32;12.30;46.90
59975;DHT22;62136;-35.664;-63.766;2022-07-17T13:49:00;12.20;47.00
59975;DHT22;62136;-35.664;-63.766;2022-07-17T13:51:27;12.30;47.10
59975;DHT22;62136;-35.664;-63.766;2022-07-17T13:53:59;12.30;47.00
59975;DHT22;62136;-35.664;-63.766;2022-07-17T13:56:26;12.30;47.10
59975;DHT22;62136;-35.664;-63.766;2022-07-17T13:58:53;12.40;47.10
59975;DHT22;62136;-35.664;-63.766;2022-07-17T14:01:20;12.40;47.20
59975;DHT22;62136;-35.664;-63.766;2022-07-17T14:03:47;12.40;47.30
59975;DHT22;62136;-35.664;-63.766;2022-07-17T14:06:14;12.40;47.30
59975;DHT22;62136;-35.664;-63.766;2022-07-17T14:08:41;12.40;47.40
59975;DHT22;62136;-35.664;-63.766;2022-07-17T14:11:10;12.40;47.30
59975;DHT22;62136;-35.664;-63.766;2022-07-17T14:13:38;12.50;47.40
59975;DHT22;62136;-35.664;-63.766;2022-07-17T14:16:05;12.50;47.40
59975;DHT22;62136;-35.664;-63.766;2022-07-17T14:18:33;12.50;47.60
59975;DHT22;62136;-35.664;-63.766;2022-07-17T14:21:00;12.50;47.60
59975;DHT22;62136;-35.664;-63.766;2022-07-17T14:23:28;12.50;47.50
59975;DHT22;62136;-35.664;-63.766;2022-07-17T14:25:55;12.60;47.80
59975;DHT22;62136;-35.664;-63.766;2022-07-17T14:28:21;12.60;47.70
59975;DHT22;62136;-35.664;-63.766;2022-07-17T14:30:48;12.60;48.10
59975;DHT22;62136;-35.664;-63.766;2022-07-17T14:33:15;12.60;47.60
59975;DHT22;62136;-35.664;-63.766;2022-07-17T14:35:42;12.70;47.80
59975;DHT22;62136;-35.664;-63.766;2022-07-17T14:38:09;12.70;48.10
59975;DHT22;62136;-35.664;-63.766;2022-07-17T14:40:36;12.70;47.90
59975;DHT22;62136;-35.664;-63.766;2022-07-17T14:43:03;12.70;48.00
59975;DHT22;62136;-35.664;-63.766;2022-07-17T14:45:30;12.70;47.90
59975;DHT22;62136;-35.664;-63.766;2022-07-17T14:47:57;12.70;48.00
59975;DHT22;62136;-35.664;-63.766;2022-07-17T14:50:24;12.70;47.90
59975;DHT22;62136;-35.664;-63.766;2022-07-17T14:52:51;12.80;47.90
59975;DHT22;62136;-35.664;-63.766;2022-07-17T14:55:18;12.80;48.10
59975;DHT22;62136;-35.664;-63.766;2022-07-17T14:57:45;12.80;47.90
59975;DHT22;62136;-35.664;-63.766;2022-07-17T15:00:13;12.80;48.00
59975;DHT22;62136;-35.664;-63.766;2022-07-17T15:02:41;12.80;48.00
59975;DHT22;62136;-35.664;-63.766;2022-07-17T15:05:08;12.80;47.90
59975;DHT22;62136;-35.664;-63.766;2022-07-17T15:07:35;12.90;48.10